sensor_id;sensor_type;location;lat;lon;timestamp;pressure;altitude;pressure_sealevel;temperature
74043;BMP280;62384;53.600;10.040;2023-06-19T00:02:13;77866.06;;;22.21
74043;BMP280;62384;53.600;10.040;2023-06-19T00:04:39;77849.00;;;22.18
74043;BMP280;62384;53.600;10.040;2023-06-19T00:07:04;77864.31;;;22.20
74043;BMP280;62384;53.600;10.040;2023-06-19T00:09:29;77843.34;;;22.23
74043;BMP280;62384;53.600;10.040;2023-06-19T00:11:55;77835.44;;;22.18
74043;BMP280;62384;53.600;10.040;2023-06-19T00:14:20;77848.44;;;22.18
74043;BMP280;62384;53.600;10.040;2023-06-19T00:16:45;77826.59;;;22.08
74043;BMP280;62384;53.600;10.040;2023-06-19T00:19:11;77836.53;;;22.26
74043;BMP280;62384;53.600;10.040;2023-06-19T00:21:37;77863.28;;;22.28
74043;BMP280;62384;53.600;10.040;2023-06-19T00:24:03;77842.16;;;22.29
74043;BMP280;62384;53.600;10.040;2023-06-19T00:26:29;77831.75;;;22.20
74043;BMP280;62384;53.600;10.040;2023-06-19T00:28:54;77839.72;;;22.17
74043;BMP280;62384;53.600;10.040;2023-06-19T00:31:20;77848.25;;;22.15
74043;BMP280;62384;53.600;10.040;2023-06-19T00:33:45;77852.78;;;22.10
74043;BMP280;62384;53.600;10.040;2023-06-19T00:36:15;77812.66;;;22.10
74043;BMP280;62384;53.600;10.040;2023-06-19T00:38:41;77840.53;;;22.13
74043;BMP280;62384;53.600;10.040;2023-06-19T00:41:06;77826.97;;;22.13
74043;BMP280;62384;53.600;10.040;2023-06-19T00:43:32;77804.63;;;21.96
74043;BMP280;62384;53.600;10.040;2023-06-19T00:45:58;77839.59;;;22.08
74043;BMP280;62384;53.600;10.040;2023-06-19T00:48:24;77849.63;;;22.12
74043;BMP280;62384;53.600;10.040;2023-06-19T00:50:51;77860.84;;;22.17
74043;BMP280;62384;53.600;10.040;2023-06-19T00:53:17;77859.09;;;22.15
74043;BMP280;62384;53.600;10.040;2023-06-19T00:55:44;77804.78;;;21.99
74043;BMP280;62384;53.600;10.040;2023-06-19T00:58:10;77839.78;;;22.10
74043;BMP280;62384;53.600;10.040;2023-06-19T01:00:36;77824.06;;;22.11
74043;BMP280;62384;53.600;10.040;2023-06-19T01:03:02;77821.34;;;22.11
74043;BMP280;62384;53.600;10.040;2023-06-19T01:05:27;77836.88;;;22.08
74043;BMP280;62384;53.600;10.040;2023-06-19T01:07:59;77841.69;;;22.14
74043;BMP280;62384;53.600;10.040;2023-06-19T01:10:33;77843.19;;;22.20
74043;BMP280;62384;53.600;10.040;2023-06-19T01:13:08;77836.00;;;22.19
74043;BMP280;62384;53.600;10.040;2023-06-19T01:15:36;77846.88;;;22.19
74043;BMP280;62384;53.600;10.040;2023-06-19T01:18:04;77840.13;;;22.15
74043;BMP280;62384;53.600;10.040;2023-06-19T01:20:29;77828.13;;;22.14
74043;BMP280;62384;53.600;10.040;2023-06-19T01:23:09;77831.59;;;22.17
74043;BMP280;62384;53.600;10.040;2023-06-19T01:25:35;77849.06;;;22.11
74043;BMP280;62384;53.600;10.040;2023-06-19T01:28:04;77801.63;;;22.08
74043;BMP280;62384;53.600;10.040;2023-06-19T01:30:31;77827.19;;;22.09
74043;BMP280;62384;53.600;10.040;2023-06-19T01:35:36;77805.31;;;22.06
74043;BMP280;62384;53.600;10.040;2023-06-19T01:38:02;77821.94;;;22.11
74043;BMP280;62384;53.600;10.040;2023-06-19T01:40:29;77835.16;;;22.06
74043;BMP280;62384;53.600;10.040;2023-06-19T01:42:58;77826.03;;;22.08
74043;BMP280;62384;53.600;10.040;2023-06-19T01:45:26;77822.00;;;22.04
74043;BMP280;62384;53.600;10.040;2023-06-19T01:47:52;77811.53;;;22.02
74043;BMP280;62384;53.600;10.040;2023-06-19T01:50:18;77836.72;;;22.05
74043;BMP280;62384;53.600;10.040;2023-06-19T01:52:44;77816.47;;;21.95
74043;BMP280;62384;53.600;10.040;2023-06-19T01:55:14;77822.63;;;21.98
74043;BMP280;62384;53.600;10.040;2023-06-19T01:57:39;77807.56;;;21.92
74043;BMP280;62384;53.600;10.040;2023-06-19T02:00:06;77796.31;;;21.94
74043;BMP280;62384;53.600;10.040;2023-06-19T02:02:36;77786.63;;;21.95
74043;BMP280;62384;53.600;10.040;2023-06-19T02:05:01;77777.09;;;21.98
74043;BMP280;62384;53.600;10.040;2023-06-19T02:07:26;77799.56;;;22.01
74043;BMP280;62384;53.600;10.040;2023-06-19T02:09:52;77801.75;;;21.94
74043;BMP280;62384;53.600;10.040;2023-06-19T02:12:17;77844.72;;;21.96
74043;BMP280;62384;53.600;10.040;2023-06-19T02:14:43;77787.06;;;21.85
74043;BMP280;62384;53.600;10.040;2023-06-19T02:17:08;77790.19;;;21.83
74043;BMP280;62384;53.600;10.040;2023-06-19T02:19:33;77790.59;;;21.81
74043;BMP280;62384;53.600;10.040;2023-06-19T02:21:58;77809.75;;;21.84
74043;BMP280;62384;53.600;10.040;2023-06-19T02:24:24;77787.47;;;21.83
74043;BMP280;62384;53.600;10.040;2023-06-19T02:26:50;77794.69;;;21.78
74043;BMP280;62384;53.600;10.040;2023-06-19T02:29:15;77813.25;;;21.80
74043;BMP280;62384;53.600;10.040;2023-06-19T02:31:42;77772.25;;;21.75
74043;BMP280;62384;53.600;10.040;2023-06-19T02:34:08;77752.09;;;21.74
74043;BMP280;62384;53.600;10.040;2023-06-19T02:36:34;77787.72;;;21.72
74043;BMP280;62384;53.600;10.040;2023-06-19T02:39:00;77756.81;;;21.64
74043;BMP280;62384;53.600;10.040;2023-06-19T02:41:25;77752.97;;;21.63
74043;BMP280;62384;53.600;10.040;2023-06-19T02:43:50;77741.34;;;21.60
74043;BMP280;62384;53.600;10.040;2023-06-19T02:46:16;77751.41;;;21.64
74043;BMP280;62384;53.600;10.040;2023-06-19T02:48:42;77762.25;;;21.64
74043;BMP280;62384;53.600;10.040;2023-06-19T02:51:08;77774.47;;;21.60
74043;BMP280;62384;53.600;10.040;2023-06-19T02:53:33;77757.06;;;21.59
74043;BMP280;62384;53.600;10.040;2023-06-19T02:55:59;77774.06;;;21.62
74043;BMP280;62384;53.600;10.040;2023-06-19T02:58:24;77760.50;;;21.62
74043;BMP280;62384;53.600;10.040;2023-06-19T03:00:50;77765.75;;;21.60
74043;BMP280;62384;53.600;10.040;2023-06-19T03:03:15;77738.81;;;21.62
74043;BMP280;62384;53.600;10.040;2023-06-19T03:05:41;77738.63;;;21.60
74043;BMP280;62384;53.600;10.040;2023-06-19T03:08:06;77758.19;;;21.60
74043;BMP280;62384;53.600;10.040;2023-06-19T03:10:32;77750.06;;;21.60
74043;BMP280;62384;53.600;10.040;2023-06-19T03:12:57;77730.28;;;21.64
74043;BMP280;62384;53.600;10.040;2023-06-19T03:15:24;77751.66;;;21.52
74043;BMP280;62384;53.600;10.040;2023-06-19T03:17:50;77720.88;;;21.54
74043;BMP280;62384;53.600;10.040;2023-06-19T03:20:15;77723.59;;;21.54
74043;BMP280;62384;53.600;10.040;2023-06-19T03:22:46;77720.16;;;21.51
74043;BMP280;62384;53.600;10.040;2023-06-19T03:25:11;77753.41;;;21.54
74043;BMP280;62384;53.600;10.040;2023-06-19T03:27:36;77721.03;;;21.56
74043;BMP280;62384;53.600;10.040;2023-06-19T03:30:05;77720.31;;;21.53
74043;BMP280;62384;53.600;10.040;2023-06-19T03:32:34;77731.72;;;21.54
74043;BMP280;62384;53.600;10.040;2023-06-19T03:35:01;77742.16;;;21.56
74043;BMP280;62384;53.600;10.040;2023-06-19T03:37:27;77696.34;;;21.51
74043;BMP280;62384;53.600;10.040;2023-06-19T03:39:52;77710.09;;;21.47
74043;BMP280;62384;53.600;10.040;2023-06-19T03:42:17;77702.13;;;21.49
74043;BMP280;62384;53.600;10.040;2023-06-19T03:44:42;77704.03;;;21.53
74043;BMP280;62384;53.600;10.040;2023-06-19T03:47:08;77701.19;;;21.44
74043;BMP280;62384;53.600;10.040;2023-06-19T03:49:33;77702.75;;;21.43
74043;BMP280;62384;53.600;10.040;2023-06-19T03:51:58;77704.91;;;21.42
74043;BMP280;62384;53.600;10.040;2023-06-19T03:54:23;77694.06;;;21.42
74043;BMP280;62384;53.600;10.040;2023-06-19T03:56:50;77699.13;;;21.37
74043;BMP280;62384;53.600;10.040;2023-06-19T03:59:15;77697.16;;;21.40
74043;BMP280;62384;53.600;10.040;2023-06-19T04:01:43;77688.47;;;21.40
74043;BMP280;62384;53.600;10.040;2023-06-19T04:04:09;77669.50;;;21.40
74043;BMP280;62384;53.600;10.040;2023-06-19T04:06:34;77673.13;;;21.22
74043;BMP280;62384;53.600;10.040;2023-06-19T04:09:00;77644.03;;;21.32
74043;BMP280;62384;53.600;10.040;2023-06-19T04:11:25;77674.00;;;21.34
74043;BMP280;62384;53.600;10.040;2023-06-19T04:13:50;77652.16;;;21.32
74043;BMP280;62384;53.600;10.040;2023-06-19T04:16:15;77659.53;;;21.29
74043;BMP280;62384;53.600;10.040;2023-06-19T04:18:40;77666.22;;;21.39
74043;BMP280;62384;53.600;10.040;2023-06-19T04:21:06;77662.41;;;21.31
74043;BMP280;62384;53.600;10.040;2023-06-19T04:23:32;77668.00;;;21.34
74043;BMP280;62384;53.600;10.040;2023-06-19T04:25:57;77672.09;;;21.30
74043;BMP280;62384;53.600;10.040;2023-06-19T04:28:22;77667.19;;;21.38
74043;BMP280;62384;53.600;10.040;2023-06-19T04:30:48;77686.00;;;21.35
74043;BMP280;62384;53.600;10.040;2023-06-19T04:33:13;77677.44;;;21.37
74043;BMP280;62384;53.600;10.040;2023-06-19T04:35:38;77682.72;;;21.35
74043;BMP280;62384;53.600;10.040;2023-06-19T04:38:09;77674.34;;;21.39
74043;BMP280;62384;53.600;10.040;2023-06-19T04:40:35;77693.72;;;21.37
74043;BMP280;62384;53.600;10.040;2023-06-19T04:43:03;77674.34;;;21.39
74043;BMP280;62384;53.600;10.040;2023-06-19T04:45:31;77668.75;;;21.37
74043;BMP280;62384;53.600;10.040;2023-06-19T04:47:56;77709.56;;;21.39
74043;BMP280;62384;53.600;10.040;2023-06-19T04:50:21;77688.47;;;21.40
74043;BMP280;62384;53.600;10.040;2023-06-19T04:52:46;77678.03;;;21.38
74043;BMP280;62384;53.600;10.040;2023-06-19T04:55:15;77660.00;;;21.43
74043;BMP280;62384;53.600;10.040;2023-06-19T04:57:40;77686.91;;;21.41
74043;BMP280;62384;53.600;10.040;2023-06-19T05:00:07;77702.59;;;21.40
74043;BMP280;62384;53.600;10.040;2023-06-19T05:02:35;77677.56;;;21.47
74043;BMP280;62384;53.600;10.040;2023-06-19T05:05:00;77702.31;;;21.52
74043;BMP280;62384;53.600;10.040;2023-06-19T05:07:32;77697.44;;;21.52
74043;BMP280;62384;53.600;10.040;2023-06-19T05:09:58;77672.50;;;21.52
74043;BMP280;62384;53.600;10.040;2023-06-19T05:12:23;77696.44;;;21.61
74043;BMP280;62384;53.600;10.040;2023-06-19T05:14:49;77710.16;;;21.63
74043;BMP280;62384;53.600;10.040;2023-06-19T05:17:14;77717.38;;;21.58
74043;BMP280;62384;53.600;10.040;2023-06-19T05:19:39;77701.75;;;21.51
74043;BMP280;62384;53.600;10.040;2023-06-19T05:22:05;77681.44;;;21.48
74043;BMP280;62384;53.600;10.040;2023-06-19T05:24:33;77684.47;;;21.53
74043;BMP280;62384;53.600;10.040;2023-06-19T05:26:58;77667.31;;;21.47
74043;BMP280;62384;53.600;10.040;2023-06-19T05:29:23;77679.31;;;21.48
74043;BMP280;62384;53.600;10.040;2023-06-19T05:31:49;77672.16;;;21.47
74043;BMP280;62384;53.600;10.040;2023-06-19T05:34:15;77689.81;;;21.43
74043;BMP280;62384;53.600;10.040;2023-06-19T05:36:40;77679.94;;;21.42
74043;BMP280;62384;53.600;10.040;2023-06-19T05:39:05;77678.38;;;21.43
74043;BMP280;62384;53.600;10.040;2023-06-19T05:41:30;77672.56;;;21.45
74043;BMP280;62384;53.600;10.040;2023-06-19T05:43:56;77679.53;;;21.44
74043;BMP280;62384;53.600;10.040;2023-06-19T05:46:22;77647.81;;;21.40
74043;BMP280;62384;53.600;10.040;2023-06-19T05:48:47;77662.13;;;21.43
74043;BMP280;62384;53.600;10.040;2023-06-19T05:51:12;77665.56;;;21.46
74043;BMP280;62384;53.600;10.040;2023-06-19T05:53:37;77649.66;;;21.51
74043;BMP280;62384;53.600;10.040;2023-06-19T05:56:04;77654.59;;;21.36
74043;BMP280;62384;53.600;10.040;2023-06-19T05:58:30;77676.19;;;21.50
74043;BMP280;62384;53.600;10.040;2023-06-19T06:00:56;77653.53;;;21.52
74043;BMP280;62384;53.600;10.040;2023-06-19T06:03:24;77676.94;;;21.53
74043;BMP280;62384;53.600;10.040;2023-06-19T06:05:50;77682.13;;;21.58
74043;BMP280;62384;53.600;10.040;2023-06-19T06:08:19;77688.69;;;21.59
74043;BMP280;62384;53.600;10.040;2023-06-19T06:10:44;77700.13;;;21.59
74043;BMP280;62384;53.600;10.040;2023-06-19T06:13:10;77713.78;;;21.69
74043;BMP280;62384;53.600;10.040;2023-06-19T06:15:43;77711.13;;;21.62
74043;BMP280;62384;53.600;10.040;2023-06-19T06:18:09;77704.69;;;21.70
74043;BMP280;62384;53.600;10.040;2023-06-19T06:20:34;77722.56;;;21.62
74043;BMP280;62384;53.600;10.040;2023-06-19T06:22:59;77732.03;;;21.66
74043;BMP280;62384;53.600;10.040;2023-06-19T06:25:25;77690.38;;;21.67
74043;BMP280;62384;53.600;10.040;2023-06-19T06:27:50;77693.25;;;21.70
74043;BMP280;62384;53.600;10.040;2023-06-19T06:32:42;77629.47;;;21.57
74043;BMP280;62384;53.600;10.040;2023-06-19T06:35:07;77588.88;;;21.50
74043;BMP280;62384;53.600;10.040;2023-06-19T06:37:32;77320.66;;;21.43
74043;BMP280;62384;53.600;10.040;2023-06-19T06:39:58;77390.22;;;21.54
74043;BMP280;62384;53.600;10.040;2023-06-19T06:42:23;77316.03;;;21.55
74043;BMP280;62384;53.600;10.040;2023-06-19T06:44:48;77365.22;;;21.70
74043;BMP280;62384;53.600;10.040;2023-06-19T06:47:13;77255.63;;;21.69
74043;BMP280;62384;53.600;10.040;2023-06-19T06:49:39;77358.97;;;21.74
74043;BMP280;62384;53.600;10.040;2023-06-19T06:52:06;77329.75;;;21.84
74043;BMP280;62384;53.600;10.040;2023-06-19T06:54:31;77154.66;;;21.85
74043;BMP280;62384;53.600;10.040;2023-06-19T06:56:57;76874.41;;;21.77
74043;BMP280;62384;53.600;10.040;2023-06-19T06:59:25;76834.19;;;21.75
74043;BMP280;62384;53.600;10.040;2023-06-19T07:01:51;76875.41;;;21.66
74043;BMP280;62384;53.600;10.040;2023-06-19T07:04:16;76673.06;;;21.52
74043;BMP280;62384;53.600;10.040;2023-06-19T07:06:41;76910.94;;;21.61
74043;BMP280;62384;53.600;10.040;2023-06-19T07:09:07;76822.38;;;21.67
74043;BMP280;62384;53.600;10.040;2023-06-19T07:11:32;77057.91;;;21.81
74043;BMP280;62384;53.600;10.040;2023-06-19T07:13:58;77249.88;;;21.90
74043;BMP280;62384;53.600;10.040;2023-06-19T07:16:23;77274.16;;;21.97
74043;BMP280;62384;53.600;10.040;2023-06-19T07:18:48;77202.22;;;22.01
74043;BMP280;62384;53.600;10.040;2023-06-19T07:21:14;77139.13;;;21.98
74043;BMP280;62384;53.600;10.040;2023-06-19T07:23:40;77135.13;;;21.94
74043;BMP280;62384;53.600;10.040;2023-06-19T07:26:06;77200.91;;;21.88
74043;BMP280;62384;53.600;10.040;2023-06-19T07:28:31;77057.19;;;21.88
74043;BMP280;62384;53.600;10.040;2023-06-19T07:30:56;77129.38;;;21.79
74043;BMP280;62384;53.600;10.040;2023-06-19T07:33:25;77143.38;;;21.87
74043;BMP280;62384;53.600;10.040;2023-06-19T07:35:50;77050.34;;;21.91
74043;BMP280;62384;53.600;10.040;2023-06-19T07:38:15;77261.31;;;22.00
74043;BMP280;62384;53.600;10.040;2023-06-19T07:40:41;77236.19;;;21.97
74043;BMP280;62384;53.600;10.040;2023-06-19T07:43:06;77330.44;;;22.04
74043;BMP280;62384;53.600;10.040;2023-06-19T07:45:31;77329.91;;;22.13
74043;BMP280;62384;53.600;10.040;2023-06-19T07:47:57;77336.00;;;22.06
74043;BMP280;62384;53.600;10.040;2023-06-19T07:50:22;77292.91;;;22.11
74043;BMP280;62384;53.600;10.040;2023-06-19T07:52:47;77359.16;;;22.12
74043;BMP280;62384;53.600;10.040;2023-06-19T07:55:14;77327.75;;;22.13
74043;BMP280;62384;53.600;10.040;2023-06-19T07:57:39;77303.63;;;22.18
74043;BMP280;62384;53.600;10.040;2023-06-19T08:00:05;77324.44;;;22.39
74043;BMP280;62384;53.600;10.040;2023-06-19T08:02:37;77359.47;;;22.53
74043;BMP280;62384;53.600;10.040;2023-06-19T08:05:04;77451.59;;;22.76
74043;BMP280;62384;53.600;10.040;2023-06-19T08:07:30;77651.53;;;22.94
74043;BMP280;62384;53.600;10.040;2023-06-19T08:09:55;77757.00;;;23.20
74043;BMP280;62384;53.600;10.040;2023-06-19T08:12:20;77859.06;;;23.43
74043;BMP280;62384;53.600;10.040;2023-06-19T08:14:46;77897.53;;;23.57
74043;BMP280;62384;53.600;10.040;2023-06-19T08:17:11;77906.25;;;23.74
74043;BMP280;62384;53.600;10.040;2023-06-19T08:19:37;77967.56;;;23.64
74043;BMP280;62384;53.600;10.040;2023-06-19T08:22:05;77978.38;;;23.71
74043;BMP280;62384;53.600;10.040;2023-06-19T08:24:30;78045.19;;;23.93
74043;BMP280;62384;53.600;10.040;2023-06-19T08:26:55;78078.88;;;24.25
74043;BMP280;62384;53.600;10.040;2023-06-19T08:29:21;78119.06;;;24.32
74043;BMP280;62384;53.600;10.040;2023-06-19T08:31:47;78091.09;;;24.29
74043;BMP280;62384;53.600;10.040;2023-06-19T08:34:13;78127.31;;;24.41
74043;BMP280;62384;53.600;10.040;2023-06-19T08:36:38;78183.91;;;24.64
74043;BMP280;62384;53.600;10.040;2023-06-19T08:39:03;78187.44;;;24.77
74043;BMP280;62384;53.600;10.040;2023-06-19T08:41:29;78239.06;;;25.07
74043;BMP280;62384;53.600;10.040;2023-06-19T08:43:54;78237.59;;;25.01
74043;BMP280;62384;53.600;10.040;2023-06-19T08:46:20;78250.56;;;25.08
74043;BMP280;62384;53.600;10.040;2023-06-19T08:48:45;78293.94;;;25.29
74043;BMP280;62384;53.600;10.040;2023-06-19T08:51:11;78303.22;;;25.37
74043;BMP280;62384;53.600;10.040;2023-06-19T08:54:01;78367.47;;;25.76
74043;BMP280;62384;53.600;10.040;2023-06-19T08:56:26;78394.16;;;26.09
74043;BMP280;62384;53.600;10.040;2023-06-19T08:58:52;78410.38;;;26.23
74043;BMP280;62384;53.600;10.040;2023-06-19T09:01:18;78455.31;;;26.33
74043;BMP280;62384;53.600;10.040;2023-06-19T09:03:44;78517.09;;;26.58
74043;BMP280;62384;53.600;10.040;2023-06-19T09:06:14;78540.44;;;26.81
74043;BMP280;62384;53.600;10.040;2023-06-19T09:08:40;78494.94;;;26.63
74043;BMP280;62384;53.600;10.040;2023-06-19T09:11:06;78474.19;;;26.38
74043;BMP280;62384;53.600;10.040;2023-06-19T09:13:32;78478.09;;;26.39
74043;BMP280;62384;53.600;10.040;2023-06-19T09:16:06;78529.31;;;26.95
74043;BMP280;62384;53.600;10.040;2023-06-19T09:18:52;78504.81;;;26.71
74043;BMP280;62384;53.600;10.040;2023-06-19T09:21:19;78553.44;;;26.71
74043;BMP280;62384;53.600;10.040;2023-06-19T09:23:47;78519.03;;;26.89
74043;BMP280;62384;53.600;10.040;2023-06-19T09:26:16;78492.53;;;26.85
74043;BMP280;62384;53.600;10.040;2023-06-19T09:28:45;78536.19;;;26.92
74043;BMP280;62384;53.600;10.040;2023-06-19T09:31:12;78583.41;;;27.11
74043;BMP280;62384;53.600;10.040;2023-06-19T09:33:39;78561.34;;;27.25
74043;BMP280;62384;53.600;10.040;2023-06-19T09:36:05;78579.13;;;27.38
74043;BMP280;62384;53.600;10.040;2023-06-19T09:38:33;78631.78;;;27.48
74043;BMP280;62384;53.600;10.040;2023-06-19T09:41:04;78648.50;;;27.96
74043;BMP280;62384;53.600;10.040;2023-06-19T09:43:37;78664.38;;;27.79
74043;BMP280;62384;53.600;10.040;2023-06-19T09:46:04;78696.59;;;27.69
74043;BMP280;62384;53.600;10.040;2023-06-19T09:48:33;78654.53;;;27.70
74043;BMP280;62384;53.600;10.040;2023-06-19T09:51:05;78664.53;;;27.81
74043;BMP280;62384;53.600;10.040;2023-06-19T09:53:35;78622.09;;;27.68
74043;BMP280;62384;53.600;10.040;2023-06-19T09:56:01;78630.28;;;27.42
74043;BMP280;62384;53.600;10.040;2023-06-19T09:58:27;78667.41;;;27.74
74043;BMP280;62384;53.600;10.040;2023-06-19T10:00:53;78737.00;;;28.18
74043;BMP280;62384;53.600;10.040;2023-06-19T10:03:20;78643.28;;;27.91
74043;BMP280;62384;53.600;10.040;2023-06-19T10:05:45;78592.56;;;27.69
74043;BMP280;62384;53.600;10.040;2023-06-19T10:08:11;78623.78;;;27.60
74043;BMP280;62384;53.600;10.040;2023-06-19T10:10:46;78700.34;;;27.67
74043;BMP280;62384;53.600;10.040;2023-06-19T10:13:15;78767.53;;;28.32
74043;BMP280;62384;53.600;10.040;2023-06-19T10:15:42;78769.78;;;28.68
74043;BMP280;62384;53.600;10.040;2023-06-19T10:18:15;78829.38;;;28.91
74043;BMP280;62384;53.600;10.040;2023-06-19T10:20:41;78812.63;;;28.95
74043;BMP280;62384;53.600;10.040;2023-06-19T10:23:19;78805.34;;;28.84
74043;BMP280;62384;53.600;10.040;2023-06-19T10:25:49;78973.81;;;29.70
74043;BMP280;62384;53.600;10.040;2023-06-19T10:28:28;78943.63;;;29.80
74043;BMP280;62384;53.600;10.040;2023-06-19T10:31:00;78866.81;;;29.28
74043;BMP280;62384;53.600;10.040;2023-06-19T10:33:27;79027.97;;;29.84
74043;BMP280;62384;53.600;10.040;2023-06-19T10:35:54;79056.31;;;30.51
74043;BMP280;62384;53.600;10.040;2023-06-19T10:38:20;79126.53;;;30.93
74043;BMP280;62384;53.600;10.040;2023-06-19T10:40:45;79103.59;;;30.78
74043;BMP280;62384;53.600;10.040;2023-06-19T10:43:12;78894.22;;;29.54
74043;BMP280;62384;53.600;10.040;2023-06-19T10:45:37;78814.38;;;28.97
74043;BMP280;62384;53.600;10.040;2023-06-19T10:48:03;78823.91;;;28.74
74043;BMP280;62384;53.600;10.040;2023-06-19T10:50:29;78944.06;;;29.42
74043;BMP280;62384;53.600;10.040;2023-06-19T10:52:59;79114.59;;;30.78
74043;BMP280;62384;53.600;10.040;2023-06-19T10:55:24;79066.78;;;30.60
74043;BMP280;62384;53.600;10.040;2023-06-19T10:57:50;79028.06;;;30.48
74043;BMP280;62384;53.600;10.040;2023-06-19T11:00:29;79084.63;;;30.73
74043;BMP280;62384;53.600;10.040;2023-06-19T11:02:56;79184.59;;;30.88
74043;BMP280;62384;53.600;10.040;2023-06-19T11:05:26;79046.78;;;30.57
74043;BMP280;62384;53.600;10.040;2023-06-19T11:07:58;78996.91;;;30.33
74043;BMP280;62384;53.600;10.040;2023-06-19T11:10:26;79053.53;;;30.42
74043;BMP280;62384;53.600;10.040;2023-06-19T11:12:56;79201.97;;;31.20
74043;BMP280;62384;53.600;10.040;2023-06-19T11:15:29;79316.16;;;31.94
74043;BMP280;62384;53.600;10.040;2023-06-19T11:17:55;79501.72;;;33.16
74043;BMP280;62384;53.600;10.040;2023-06-19T11:20:20;79594.28;;;33.77
74043;BMP280;62384;53.600;10.040;2023-06-19T11:22:45;79638.50;;;34.24
74043;BMP280;62384;53.600;10.040;2023-06-19T11:25:11;79675.81;;;34.28
74043;BMP280;62384;53.600;10.040;2023-06-19T11:27:38;79588.72;;;33.67
74043;BMP280;62384;53.600;10.040;2023-06-19T11:30:05;79581.88;;;33.92
74043;BMP280;62384;53.600;10.040;2023-06-19T11:32:37;79484.25;;;33.01
74043;BMP280;62384;53.600;10.040;2023-06-19T11:35:08;79756.66;;;34.95
74043;BMP280;62384;53.600;10.040;2023-06-19T11:37:34;79701.88;;;34.57
74043;BMP280;62384;53.600;10.040;2023-06-19T11:40:00;79645.06;;;34.32
74043;BMP280;62384;53.600;10.040;2023-06-19T11:42:26;79535.28;;;33.90
74043;BMP280;62384;53.600;10.040;2023-06-19T11:45:02;79397.72;;;33.15
74043;BMP280;62384;53.600;10.040;2023-06-19T11:47:30;79380.00;;;32.66
74043;BMP280;62384;53.600;10.040;2023-06-19T11:49:56;79366.81;;;32.86
74043;BMP280;62384;53.600;10.040;2023-06-19T11:52:22;79204.09;;;31.64
74043;BMP280;62384;53.600;10.040;2023-06-19T11:54:47;79132.84;;;31.34
74043;BMP280;62384;53.600;10.040;2023-06-19T11:57:12;79048.59;;;30.87
74043;BMP280;62384;53.600;10.040;2023-06-19T11:59:41;79043.47;;;30.66
74043;BMP280;62384;53.600;10.040;2023-06-19T12:02:08;78911.28;;;29.90
74043;BMP280;62384;53.600;10.040;2023-06-19T12:04:35;78931.66;;;29.81
74043;BMP280;62384;53.600;10.040;2023-06-19T12:07:01;78977.97;;;29.93
74043;BMP280;62384;53.600;10.040;2023-06-19T12:09:26;78876.66;;;29.62
74043;BMP280;62384;53.600;10.040;2023-06-19T12:11:52;78877.06;;;29.70
74043;BMP280;62384;53.600;10.040;2023-06-19T12:14:18;78859.22;;;29.47
74043;BMP280;62384;53.600;10.040;2023-06-19T12:16:45;78776.16;;;29.09
74043;BMP280;62384;53.600;10.040;2023-06-19T12:19:11;78765.03;;;28.80
74043;BMP280;62384;53.600;10.040;2023-06-19T12:21:36;78815.28;;;29.02
74043;BMP280;62384;53.600;10.040;2023-06-19T12:24:02;78748.16;;;28.73
74043;BMP280;62384;53.600;10.040;2023-06-19T12:26:27;78858.09;;;29.20
74043;BMP280;62384;53.600;10.040;2023-06-19T12:28:53;78946.25;;;29.87
74043;BMP280;62384;53.600;10.040;2023-06-19T12:31:18;78958.06;;;30.19
74043;BMP280;62384;53.600;10.040;2023-06-19T12:33:44;78936.63;;;30.09
74043;BMP280;62384;53.600;10.040;2023-06-19T12:36:14;78924.41;;;29.80
74043;BMP280;62384;53.600;10.040;2023-06-19T12:38:42;78793.13;;;28.90
74043;BMP280;62384;53.600;10.040;2023-06-19T12:41:08;78774.88;;;28.79
74043;BMP280;62384;53.600;10.040;2023-06-19T12:43:34;78866.72;;;29.35
74043;BMP280;62384;53.600;10.040;2023-06-19T12:45:59;78831.06;;;29.09
74043;BMP280;62384;53.600;10.040;2023-06-19T12:48:26;78797.91;;;28.97
74043;BMP280;62384;53.600;10.040;2023-06-19T12:50:51;78769.59;;;28.65
74043;BMP280;62384;53.600;10.040;2023-06-19T12:53:17;78724.88;;;28.69
74043;BMP280;62384;53.600;10.040;2023-06-19T12:55:46;78759.91;;;28.59
74043;BMP280;62384;53.600;10.040;2023-06-19T12:58:11;78799.34;;;28.93
74043;BMP280;62384;53.600;10.040;2023-06-19T13:00:37;78759.53;;;28.71
74043;BMP280;62384;53.600;10.040;2023-06-19T13:03:03;78696.31;;;28.42
74043;BMP280;62384;53.600;10.040;2023-06-19T13:05:29;78735.06;;;28.57
74043;BMP280;62384;53.600;10.040;2023-06-19T13:07:54;78767.94;;;28.73
74043;BMP280;62384;53.600;10.040;2023-06-19T13:10:20;78672.19;;;28.33
74043;BMP280;62384;53.600;10.040;2023-06-19T13:12:46;78715.53;;;28.16
74043;BMP280;62384;53.600;10.040;2023-06-19T13:15:12;78716.63;;;28.33
74043;BMP280;62384;53.600;10.040;2023-06-19T13:17:37;78661.56;;;28.12
74043;BMP280;62384;53.600;10.040;2023-06-19T13:20:04;78677.72;;;27.90
74043;BMP280;62384;53.600;10.040;2023-06-19T13:22:30;78704.06;;;28.08
74043;BMP280;62384;53.600;10.040;2023-06-19T13:24:56;78793.13;;;28.64
74043;BMP280;62384;53.600;10.040;2023-06-19T13:27:22;78819.53;;;28.92
74043;BMP280;62384;53.600;10.040;2023-06-19T13:29:48;78795.03;;;29.04
74043;BMP280;62384;53.600;10.040;2023-06-19T13:32:13;78752.84;;;28.96
74043;BMP280;62384;53.600;10.040;2023-06-19T13:34:39;78679.81;;;28.23
74043;BMP280;62384;53.600;10.040;2023-06-19T13:37:04;78713.25;;;28.23
74043;BMP280;62384;53.600;10.040;2023-06-19T13:39:30;78758.75;;;28.58
74043;BMP280;62384;53.600;10.040;2023-06-19T13:41:55;78846.16;;;28.96
74043;BMP280;62384;53.600;10.040;2023-06-19T13:44:21;78890.09;;;29.31
74043;BMP280;62384;53.600;10.040;2023-06-19T13:46:46;78848.91;;;29.31
74043;BMP280;62384;53.600;10.040;2023-06-19T13:49:12;78827.38;;;29.03
74043;BMP280;62384;53.600;10.040;2023-06-19T13:51:38;78827.94;;;29.30
74043;BMP280;62384;53.600;10.040;2023-06-19T13:54:04;78829.25;;;28.98
74043;BMP280;62384;53.600;10.040;2023-06-19T13:56:29;78749.19;;;28.55
74043;BMP280;62384;53.600;10.040;2023-06-19T13:58:55;78635.56;;;28.08